sensor_id;sensor_type;location;lat;lon;timestamp;temperature;humidity
39023;DHT22;25908;51.984;5.928;2023-05-23T00:00:23;17.60;97.90
39023;DHT22;25908;51.984;5.928;2023-05-23T00:02:48;17.60;97.90
39023;DHT22;25908;51.984;5.928;2023-05-23T00:05:14;17.50;97.90
39023;DHT22;25908;51.984;5.928;2023-05-23T00:07:43;17.50;98.00
39023;DHT22;25908;51.984;5.928;2023-05-23T00:10:09;17.40;98.10
39023;DHT22;25908;51.984;5.928;2023-05-23T00:12:34;17.30;98.20
39023;DHT22;25908;51.984;5.928;2023-05-23T00:15:02;17.40;98.30
39023;DHT22;25908;51.984;5.928;2023-05-23T00:17:27;17.40;98.30
39023;DHT22;25908;51.984;5.928;2023-05-23T00:19:53;17.40;98.40
39023;DHT22;25908;51.984;5.928;2023-05-23T00:22:20;17.40;98.40
39023;DHT22;25908;51.984;5.928;2023-05-23T00:24:46;17.40;98.50
39023;DHT22;25908;51.984;5.928;2023-05-23T00:27:11;17.40;98.50
39023;DHT22;25908;51.984;5.928;2023-05-23T00:29:37;17.40;98.50
39023;DHT22;25908;51.984;5.928;2023-05-23T00:32:03;17.40;98.60
39023;DHT22;25908;51.984;5.928;2023-05-23T00:34:28;17.40;98.50
39023;DHT22;25908;51.984;5.928;2023-05-23T00:36:54;17.40;98.60
39023;DHT22;25908;51.984;5.928;2023-05-23T00:39:19;17.40;99.00
39023;DHT22;25908;51.984;5.928;2023-05-23T00:41:49;17.40;98.80
39023;DHT22;25908;51.984;5.928;2023-05-23T00:44:15;17.40;98.80
39023;DHT22;25908;51.984;5.928;2023-05-23T00:46:42;17.40;98.90
39023;DHT22;25908;51.984;5.928;2023-05-23T00:49:10;17.30;98.90
39023;DHT22;25908;51.984;5.928;2023-05-23T00:51:37;17.30;99.10
39023;DHT22;25908;51.984;5.928;2023-05-23T00:54:04;17.20;99.20
39023;DHT22;25908;51.984;5.928;2023-05-23T00:56:30;17.20;99.40
39023;DHT22;25908;51.984;5.928;2023-05-23T00:58:55;17.20;99.50
39023;DHT22;25908;51.984;5.928;2023-05-23T01:01:22;17.20;99.70
39023;DHT22;25908;51.984;5.928;2023-05-23T01:03:49;17.10;99.80
39023;DHT22;25908;51.984;5.928;2023-05-23T01:06:15;17.10;99.90
39023;DHT22;25908;51.984;5.928;2023-05-23T01:08:42;17.10;99.90
39023;DHT22;25908;51.984;5.928;2023-05-23T01:11:22;17.10;99.90
39023;DHT22;25908;51.984;5.928;2023-05-23T01:14:00;17.10;99.90
39023;DHT22;25908;51.984;5.928;2023-05-23T01:16:47;17.00;99.90
39023;DHT22;25908;51.984;5.928;2023-05-23T01:21:54;16.90;99.90
39023;DHT22;25908;51.984;5.928;2023-05-23T01:24:35;16.90;99.90
39023;DHT22;25908;51.984;5.928;2023-05-23T01:27:41;16.90;99.90
39023;DHT22;25908;51.984;5.928;2023-05-23T01:30:01;16.90;99.90
39023;DHT22;25908;51.984;5.928;2023-05-23T01:32:30;16.80;99.90
39023;DHT22;25908;51.984;5.928;2023-05-23T01:34:57;16.80;99.90
39023;DHT22;25908;51.984;5.928;2023-05-23T01:37:23;16.80;99.90
39023;DHT22;25908;51.984;5.928;2023-05-23T01:39:49;16.80;99.90
39023;DHT22;25908;51.984;5.928;2023-05-23T01:42:15;16.90;99.90
39023;DHT22;25908;51.984;5.928;2023-05-23T01:44:41;16.80;99.90
39023;DHT22;25908;51.984;5.928;2023-05-23T01:47:08;16.90;99.90
39023;DHT22;25908;51.984;5.928;2023-05-23T01:49:35;16.80;99.90
39023;DHT22;25908;51.984;5.928;2023-05-23T01:52:01;16.80;99.90
39023;DHT22;25908;51.984;5.928;2023-05-23T01:54:28;16.80;99.90
39023;DHT22;25908;51.984;5.928;2023-05-23T01:56:56;16.80;99.90
39023;DHT22;25908;51.984;5.928;2023-05-23T01:59:22;16.80;99.90
39023;DHT22;25908;51.984;5.928;2023-05-23T02:01:48;16.80;99.90
39023;DHT22;25908;51.984;5.928;2023-05-23T02:04:13;16.70;99.90
39023;DHT22;25908;51.984;5.928;2023-05-23T02:06:40;16.70;99.90
39023;DHT22;25908;51.984;5.928;2023-05-23T02:09:06;16.70;99.90
39023;DHT22;25908;51.984;5.928;2023-05-23T02:11:32;16.60;99.90
39023;DHT22;25908;51.984;5.928;2023-05-23T02:13:58;16.70;99.90
39023;DHT22;25908;51.984;5.928;2023-05-23T02:16:24;16.70;99.90
39023;DHT22;25908;51.984;5.928;2023-05-23T02:18:50;16.70;99.90
39023;DHT22;25908;51.984;5.928;2023-05-23T02:21:17;16.80;99.90
39023;DHT22;25908;51.984;5.928;2023-05-23T02:23:43;16.80;99.90
39023;DHT22;25908;51.984;5.928;2023-05-23T02:26:08;16.80;99.90
39023;DHT22;25908;51.984;5.928;2023-05-23T02:28:34;16.80;99.90
39023;DHT22;25908;51.984;5.928;2023-05-23T02:31:00;16.80;99.90
39023;DHT22;25908;51.984;5.928;2023-05-23T02:33:26;16.70;99.90
39023;DHT22;25908;51.984;5.928;2023-05-23T02:35:51;16.70;99.90
39023;DHT22;25908;51.984;5.928;2023-05-23T02:38:17;16.60;99.90
39023;DHT22;25908;51.984;5.928;2023-05-23T02:40:44;16.60;99.90
39023;DHT22;25908;51.984;5.928;2023-05-23T02:43:10;16.60;99.90
39023;DHT22;25908;51.984;5.928;2023-05-23T02:45:35;16.60;99.90
39023;DHT22;25908;51.984;5.928;2023-05-23T02:48:01;16.50;99.90
39023;DHT22;25908;51.984;5.928;2023-05-23T02:50:27;16.50;99.90
39023;DHT22;25908;51.984;5.928;2023-05-23T02:52:52;16.40;99.90
39023;DHT22;25908;51.984;5.928;2023-05-23T02:55:18;16.50;99.90
39023;DHT22;25908;51.984;5.928;2023-05-23T02:57:43;16.50;99.90
39023;DHT22;25908;51.984;5.928;2023-05-23T03:00:09;16.50;99.90
39023;DHT22;25908;51.984;5.928;2023-05-23T03:02:36;16.50;99.90
39023;DHT22;25908;51.984;5.928;2023-05-23T03:05:01;16.50;99.90
39023;DHT22;25908;51.984;5.928;2023-05-23T03:07:28;16.50;99.90
39023;DHT22;25908;51.984;5.928;2023-05-23T03:09:55;16.60;99.90
39023;DHT22;25908;51.984;5.928;2023-05-23T03:12:20;16.60;99.90
39023;DHT22;25908;51.984;5.928;2023-05-23T03:14:46;16.60;99.90
39023;DHT22;25908;51.984;5.928;2023-05-23T03:17:12;16.60;99.90
39023;DHT22;25908;51.984;5.928;2023-05-23T03:19:38;16.60;99.90
39023;DHT22;25908;51.984;5.928;2023-05-23T03:22:03;16.50;99.90
39023;DHT22;25908;51.984;5.928;2023-05-23T03:24:29;16.50;99.90
39023;DHT22;25908;51.984;5.928;2023-05-23T03:26:56;16.50;99.90
39023;DHT22;25908;51.984;5.928;2023-05-23T03:29:21;16.50;99.90
39023;DHT22;25908;51.984;5.928;2023-05-23T03:31:47;16.50;99.90
39023;DHT22;25908;51.984;5.928;2023-05-23T03:34:12;16.50;99.90
39023;DHT22;25908;51.984;5.928;2023-05-23T03:36:38;16.50;99.90
39023;DHT22;25908;51.984;5.928;2023-05-23T03:39:04;16.40;99.90
39023;DHT22;25908;51.984;5.928;2023-05-23T03:41:30;16.50;99.90
39023;DHT22;25908;51.984;5.928;2023-05-23T03:43:56;16.40;99.90
39023;DHT22;25908;51.984;5.928;2023-05-23T03:46:21;16.40;99.90
39023;DHT22;25908;51.984;5.928;2023-05-23T03:48:47;16.40;99.90
39023;DHT22;25908;51.984;5.928;2023-05-23T03:51:12;16.50;99.90
39023;DHT22;25908;51.984;5.928;2023-05-23T03:53:38;16.40;99.90
39023;DHT22;25908;51.984;5.928;2023-05-23T03:56:04;16.30;99.90
39023;DHT22;25908;51.984;5.928;2023-05-23T03:58:29;16.30;99.90
39023;DHT22;25908;51.984;5.928;2023-05-23T04:00:55;16.40;99.90
39023;DHT22;25908;51.984;5.928;2023-05-23T04:03:20;16.40;99.90
39023;DHT22;25908;51.984;5.928;2023-05-23T04:05:46;16.40;99.90
39023;DHT22;25908;51.984;5.928;2023-05-23T04:08:11;16.40;99.90
39023;DHT22;25908;51.984;5.928;2023-05-23T04:10:37;16.40;99.90
39023;DHT22;25908;51.984;5.928;2023-05-23T04:13:03;16.40;99.90
39023;DHT22;25908;51.984;5.928;2023-05-23T04:15:28;16.40;99.90
39023;DHT22;25908;51.984;5.928;2023-05-23T04:17:54;16.40;99.90
39023;DHT22;25908;51.984;5.928;2023-05-23T04:20:20;16.50;99.90
39023;DHT22;25908;51.984;5.928;2023-05-23T04:22:46;16.40;99.90
39023;DHT22;25908;51.984;5.928;2023-05-23T04:25:11;16.40;99.90
39023;DHT22;25908;51.984;5.928;2023-05-23T04:27:38;16.50;99.90
39023;DHT22;25908;51.984;5.928;2023-05-23T04:30:05;16.50;99.90
39023;DHT22;25908;51.984;5.928;2023-05-23T04:32:32;16.50;99.90
39023;DHT22;25908;51.984;5.928;2023-05-23T04:34:58;16.50;99.90
39023;DHT22;25908;51.984;5.928;2023-05-23T04:37:26;16.40;99.90
39023;DHT22;25908;51.984;5.928;2023-05-23T04:39:52;16.40;99.90
39023;DHT22;25908;51.984;5.928;2023-05-23T04:42:18;16.40;99.90
39023;DHT22;25908;51.984;5.928;2023-05-23T04:44:49;16.40;99.90
39023;DHT22;25908;51.984;5.928;2023-05-23T04:47:15;16.30;99.90
39023;DHT22;25908;51.984;5.928;2023-05-23T04:49:40;16.30;99.90
39023;DHT22;25908;51.984;5.928;2023-05-23T04:52:06;16.30;99.90
39023;DHT22;25908;51.984;5.928;2023-05-23T04:54:32;16.20;99.90
39023;DHT22;25908;51.984;5.928;2023-05-23T04:56:57;16.20;99.90
39023;DHT22;25908;51.984;5.928;2023-05-23T04:59:23;16.10;99.90
39023;DHT22;25908;51.984;5.928;2023-05-23T05:01:48;16.10;99.90
39023;DHT22;25908;51.984;5.928;2023-05-23T05:04:14;16.10;99.90
39023;DHT22;25908;51.984;5.928;2023-05-23T05:06:41;16.10;99.90
39023;DHT22;25908;51.984;5.928;2023-05-23T05:09:06;16.20;99.90
39023;DHT22;25908;51.984;5.928;2023-05-23T05:11:32;16.10;99.90
39023;DHT22;25908;51.984;5.928;2023-05-23T05:13:57;16.20;99.90
39023;DHT22;25908;51.984;5.928;2023-05-23T05:16:23;16.20;99.90
39023;DHT22;25908;51.984;5.928;2023-05-23T05:18:48;16.20;99.90
39023;DHT22;25908;51.984;5.928;2023-05-23T05:21:14;16.20;99.90
39023;DHT22;25908;51.984;5.928;2023-05-23T05:23:40;16.10;99.90
39023;DHT22;25908;51.984;5.928;2023-05-23T05:26:06;16.10;99.90
39023;DHT22;25908;51.984;5.928;2023-05-23T05:28:32;16.10;99.90
39023;DHT22;25908;51.984;5.928;2023-05-23T05:30:58;16.00;99.90
39023;DHT22;25908;51.984;5.928;2023-05-23T05:33:23;16.00;99.90
39023;DHT22;25908;51.984;5.928;2023-05-23T05:35:49;15.90;99.90
39023;DHT22;25908;51.984;5.928;2023-05-23T05:38:18;15.90;99.90
39023;DHT22;25908;51.984;5.928;2023-05-23T05:40:43;15.90;99.90
39023;DHT22;25908;51.984;5.928;2023-05-23T05:43:09;15.80;99.90
39023;DHT22;25908;51.984;5.928;2023-05-23T05:45:35;15.80;99.90
39023;DHT22;25908;51.984;5.928;2023-05-23T05:48:01;15.80;99.90
39023;DHT22;25908;51.984;5.928;2023-05-23T05:50:27;15.70;99.90
39023;DHT22;25908;51.984;5.928;2023-05-23T05:52:52;15.70;99.90
39023;DHT22;25908;51.984;5.928;2023-05-23T05:55:18;15.70;99.90
39023;DHT22;25908;51.984;5.928;2023-05-23T05:57:43;15.70;99.90
39023;DHT22;25908;51.984;5.928;2023-05-23T06:00:11;15.70;99.90
39023;DHT22;25908;51.984;5.928;2023-05-23T06:02:40;15.70;99.90
39023;DHT22;25908;51.984;5.928;2023-05-23T06:05:07;15.70;99.90
39023;DHT22;25908;51.984;5.928;2023-05-23T06:07:39;15.70;99.90
39023;DHT22;25908;51.984;5.928;2023-05-23T06:10:05;15.60;99.90
39023;DHT22;25908;51.984;5.928;2023-05-23T06:12:31;15.60;99.90
39023;DHT22;25908;51.984;5.928;2023-05-23T06:14:57;15.70;99.90
39023;DHT22;25908;51.984;5.928;2023-05-23T06:17:22;15.60;99.90
39023;DHT22;25908;51.984;5.928;2023-05-23T06:19:48;15.60;99.90
39023;DHT22;25908;51.984;5.928;2023-05-23T06:22:14;15.50;99.90
39023;DHT22;25908;51.984;5.928;2023-05-23T06:24:39;15.60;99.90
39023;DHT22;25908;51.984;5.928;2023-05-23T06:27:05;15.50;99.90
39023;DHT22;25908;51.984;5.928;2023-05-23T06:29:30;15.50;99.90
39023;DHT22;25908;51.984;5.928;2023-05-23T06:31:56;15.60;99.90
39023;DHT22;25908;51.984;5.928;2023-05-23T06:34:22;15.60;99.90
39023;DHT22;25908;51.984;5.928;2023-05-23T06:36:47;15.50;99.90
39023;DHT22;25908;51.984;5.928;2023-05-23T06:39:13;15.50;99.90
39023;DHT22;25908;51.984;5.928;2023-05-23T06:41:39;15.50;99.90
39023;DHT22;25908;51.984;5.928;2023-05-23T06:44:05;15.50;99.90
39023;DHT22;25908;51.984;5.928;2023-05-23T06:46:30;15.50;99.90
39023;DHT22;25908;51.984;5.928;2023-05-23T06:48:56;15.50;99.90
39023;DHT22;25908;51.984;5.928;2023-05-23T06:51:22;15.50;99.50
39023;DHT22;25908;51.984;5.928;2023-05-23T06:53:47;15.40;99.30
39023;DHT22;25908;51.984;5.928;2023-05-23T06:56:13;15.50;99.10
39023;DHT22;25908;51.984;5.928;2023-05-23T06:58:38;15.40;98.70
39023;DHT22;25908;51.984;5.928;2023-05-23T07:01:04;15.40;98.60
39023;DHT22;25908;51.984;5.928;2023-05-23T07:03:30;15.40;98.10
39023;DHT22;25908;51.984;5.928;2023-05-23T07:05:55;15.30;98.10
39023;DHT22;25908;51.984;5.928;2023-05-23T07:08:21;15.30;98.00
39023;DHT22;25908;51.984;5.928;2023-05-23T07:10:47;15.40;97.90
39023;DHT22;25908;51.984;5.928;2023-05-23T07:13:12;15.50;97.80
39023;DHT22;25908;51.984;5.928;2023-05-23T07:15:38;15.80;97.70
39023;DHT22;25908;51.984;5.928;2023-05-23T07:18:03;16.10;97.30
39023;DHT22;25908;51.984;5.928;2023-05-23T07:20:29;16.40;96.70
39023;DHT22;25908;51.984;5.928;2023-05-23T07:22:56;16.60;96.00
39023;DHT22;25908;51.984;5.928;2023-05-23T07:25:22;16.80;95.30
39023;DHT22;25908;51.984;5.928;2023-05-23T07:27:47;16.90;94.70
39023;DHT22;25908;51.984;5.928;2023-05-23T07:30:13;16.90;94.00
39023;DHT22;25908;51.984;5.928;2023-05-23T07:32:40;16.90;94.00
39023;DHT22;25908;51.984;5.928;2023-05-23T07:35:06;17.10;93.80
39023;DHT22;25908;51.984;5.928;2023-05-23T07:37:32;17.20;93.40
39023;DHT22;25908;51.984;5.928;2023-05-23T07:39:57;17.50;93.30
39023;DHT22;25908;51.984;5.928;2023-05-23T07:42:23;17.70;92.80
39023;DHT22;25908;51.984;5.928;2023-05-23T07:44:48;17.90;92.10
39023;DHT22;25908;51.984;5.928;2023-05-23T07:47:14;18.00;91.60
39023;DHT22;25908;51.984;5.928;2023-05-23T07:49:39;18.20;91.20
39023;DHT22;25908;51.984;5.928;2023-05-23T07:52:05;18.50;90.80
39023;DHT22;25908;51.984;5.928;2023-05-23T07:54:31;18.80;90.10
39023;DHT22;25908;51.984;5.928;2023-05-23T07:56:57;19.10;88.90
39023;DHT22;25908;51.984;5.928;2023-05-23T07:59:22;19.30;88.10
39023;DHT22;25908;51.984;5.928;2023-05-23T08:01:48;19.20;87.50
39023;DHT22;25908;51.984;5.928;2023-05-23T08:04:16;19.10;87.50
39023;DHT22;25908;51.984;5.928;2023-05-23T08:06:41;18.90;87.50
39023;DHT22;25908;51.984;5.928;2023-05-23T08:09:07;18.80;87.90
39023;DHT22;25908;51.984;5.928;2023-05-23T08:11:34;18.70;88.50
39023;DHT22;25908;51.984;5.928;2023-05-23T08:14:00;18.70;88.80
39023;DHT22;25908;51.984;5.928;2023-05-23T08:16:25;18.60;88.90
39023;DHT22;25908;51.984;5.928;2023-05-23T08:18:52;18.50;89.10
39023;DHT22;25908;51.984;5.928;2023-05-23T08:21:17;18.30;89.10
39023;DHT22;25908;51.984;5.928;2023-05-23T08:23:43;18.10;89.30
39023;DHT22;25908;51.984;5.928;2023-05-23T08:26:08;18.00;89.60
39023;DHT22;25908;51.984;5.928;2023-05-23T08:28:35;17.80;90.00
39023;DHT22;25908;51.984;5.928;2023-05-23T08:31:00;17.80;90.40
39023;DHT22;25908;51.984;5.928;2023-05-23T08:33:26;18.00;90.20
39023;DHT22;25908;51.984;5.928;2023-05-23T08:35:51;18.30;90.20
39023;DHT22;25908;51.984;5.928;2023-05-23T08:38:17;18.50;89.60
39023;DHT22;25908;51.984;5.928;2023-05-23T08:40:49;18.70;88.40
39023;DHT22;25908;51.984;5.928;2023-05-23T08:43:15;18.80;87.90
39023;DHT22;25908;51.984;5.928;2023-05-23T08:45:41;19.00;87.40
39023;DHT22;25908;51.984;5.928;2023-05-23T08:48:08;19.30;86.60
39023;DHT22;25908;51.984;5.928;2023-05-23T08:50:39;19.70;84.90
39023;DHT22;25908;51.984;5.928;2023-05-23T08:53:05;20.00;83.20
39023;DHT22;25908;51.984;5.928;2023-05-23T08:55:33;20.00;81.40
39023;DHT22;25908;51.984;5.928;2023-05-23T08:57:59;20.00;81.20
39023;DHT22;25908;51.984;5.928;2023-05-23T09:00:26;19.90;81.60
39023;DHT22;25908;51.984;5.928;2023-05-23T09:02:52;19.70;81.80
39023;DHT22;25908;51.984;5.928;2023-05-23T09:05:19;19.40;82.20
39023;DHT22;25908;51.984;5.928;2023-05-23T09:07:46;19.20;82.50
39023;DHT22;25908;51.984;5.928;2023-05-23T09:10:16;19.00;82.70
39023;DHT22;25908;51.984;5.928;2023-05-23T09:12:44;18.80;83.30
39023;DHT22;25908;51.984;5.928;2023-05-23T09:15:11;18.80;83.70
39023;DHT22;25908;51.984;5.928;2023-05-23T09:17:37;18.80;83.50
39023;DHT22;25908;51.984;5.928;2023-05-23T09:20:03;18.80;83.50
39023;DHT22;25908;51.984;5.928;2023-05-23T09:22:34;18.90;83.30
39023;DHT22;25908;51.984;5.928;2023-05-23T09:25:00;19.00;82.30
39023;DHT22;25908;51.984;5.928;2023-05-23T09:27:26;19.00;80.90
39023;DHT22;25908;51.984;5.928;2023-05-23T09:29:52;19.00;80.90
39023;DHT22;25908;51.984;5.928;2023-05-23T09:32:18;19.00;80.70
39023;DHT22;25908;51.984;5.928;2023-05-23T09:34:59;19.00;81.00
39023;DHT22;25908;51.984;5.928;2023-05-23T09:37:33;18.90;80.70
39023;DHT22;25908;51.984;5.928;2023-05-23T09:40:00;18.90;80.60
39023;DHT22;25908;51.984;5.928;2023-05-23T09:42:31;18.90;80.30
39023;DHT22;25908;51.984;5.928;2023-05-23T09:44:59;18.90;80.90
39023;DHT22;25908;51.984;5.928;2023-05-23T09:47:24;19.00;79.50
39023;DHT22;25908;51.984;5.928;2023-05-23T09:49:51;19.00;79.40
39023;DHT22;25908;51.984;5.928;2023-05-23T09:52:17;19.10;79.60
39023;DHT22;25908;51.984;5.928;2023-05-23T09:54:45;19.20;79.60
39023;DHT22;25908;51.984;5.928;2023-05-23T09:57:11;19.20;79.60
39023;DHT22;25908;51.984;5.928;2023-05-23T09:59:39;19.30;79.40
39023;DHT22;25908;51.984;5.928;2023-05-23T10:02:07;19.50;79.10
39023;DHT22;25908;51.984;5.928;2023-05-23T10:04:36;19.60;78.40
39023;DHT22;25908;51.984;5.928;2023-05-23T10:07:22;19.80;77.80
39023;DHT22;25908;51.984;5.928;2023-05-23T10:09:54;20.00;77.10
39023;DHT22;25908;51.984;5.928;2023-05-23T10:14:51;20.60;76.30
39023;DHT22;25908;51.984;5.928;2023-05-23T10:17:35;21.00;75.40
39023;DHT22;25908;51.984;5.928;2023-05-23T10:20:09;21.20;73.60
39023;DHT22;25908;51.984;5.928;2023-05-23T10:22:38;21.40;73.10
39023;DHT22;25908;51.984;5.928;2023-05-23T10:25:05;21.60;72.80
39023;DHT22;25908;51.984;5.928;2023-05-23T10:27:32;21.60;72.40
39023;DHT22;25908;51.984;5.928;2023-05-23T10:29:58;21.70;71.80
39023;DHT22;25908;51.984;5.928;2023-05-23T10:32:26;21.70;70.40
39023;DHT22;25908;51.984;5.928;2023-05-23T10:41:09;22.30;67.80
39023;DHT22;25908;51.984;5.928;2023-05-23T10:49:16;22.40;65.30
39023;DHT22;25908;51.984;5.928;2023-05-23T10:51:41;22.30;64.90
39023;DHT22;25908;51.984;5.928;2023-05-23T10:54:10;22.20;64.00
39023;DHT22;25908;51.984;5.928;2023-05-23T10:56:36;22.20;63.70
39023;DHT22;25908;51.984;5.928;2023-05-23T10:59:04;22.10;63.40
39023;DHT22;25908;51.984;5.928;2023-05-23T11:01:30;22.00;63.50
39023;DHT22;25908;51.984;5.928;2023-05-23T11:03:56;22.00;63.70
39023;DHT22;25908;51.984;5.928;2023-05-23T11:06:42;21.80;63.60
39023;DHT22;25908;51.984;5.928;2023-05-23T11:09:13;21.60;63.40
39023;DHT22;25908;51.984;5.928;2023-05-23T11:12:01;21.40;64.20
39023;DHT22;25908;51.984;5.928;2023-05-23T11:16:56;21.40;65.50
39023;DHT22;25908;51.984;5.928;2023-05-23T11:19:24;21.50;65.50
39023;DHT22;25908;51.984;5.928;2023-05-23T11:24:48;21.70;65.10
39023;DHT22;25908;51.984;5.928;2023-05-23T11:27:34;22.00;63.80
39023;DHT22;25908;51.984;5.928;2023-05-23T11:32:31;22.10;62.90
39023;DHT22;25908;51.984;5.928;2023-05-23T11:35:08;22.10;62.60
39023;DHT22;25908;51.984;5.928;2023-05-23T11:37:35;22.00;63.20
39023;DHT22;25908;51.984;5.928;2023-05-23T11:40:25;21.80;63.60
39023;DHT22;25908;51.984;5.928;2023-05-23T11:42:51;21.70;63.60
39023;DHT22;25908;51.984;5.928;2023-05-23T11:45:21;21.50;63.70
39023;DHT22;25908;51.984;5.928;2023-05-23T11:47:46;21.50;64.20
39023;DHT22;25908;51.984;5.928;2023-05-23T11:50:12;21.50;64.10
39023;DHT22;25908;51.984;5.928;2023-05-23T11:52:38;21.70;64.10
39023;DHT22;25908;51.984;5.928;2023-05-23T11:55:05;21.70;63.20
39023;DHT22;25908;51.984;5.928;2023-05-23T11:57:31;21.80;63.00
39023;DHT22;25908;51.984;5.928;2023-05-23T11:59:56;21.80;62.70
39023;DHT22;25908;51.984;5.928;2023-05-23T12:02:22;21.60;62.90
39023;DHT22;25908;51.984;5.928;2023-05-23T12:04:47;21.50;63.60
39023;DHT22;25908;51.984;5.928;2023-05-23T12:07:13;21.30;64.40
39023;DHT22;25908;51.984;5.928;2023-05-23T12:09:44;21.40;64.30
39023;DHT22;25908;51.984;5.928;2023-05-23T12:12:11;21.30;63.80
39023;DHT22;25908;51.984;5.928;2023-05-23T12:14:37;21.50;63.90
39023;DHT22;25908;51.984;5.928;2023-05-23T12:17:12;21.30;63.80
39023;DHT22;25908;51.984;5.928;2023-05-23T12:19:38;21.30;63.30
39023;DHT22;25908;51.984;5.928;2023-05-23T12:22:07;21.20;62.50
39023;DHT22;25908;51.984;5.928;2023-05-23T12:24:33;21.00;62.30
39023;DHT22;25908;51.984;5.928;2023-05-23T12:27:00;20.90;62.40
39023;DHT22;25908;51.984;5.928;2023-05-23T12:29:33;20.90;62.80
39023;DHT22;25908;51.984;5.928;2023-05-23T12:32:00;20.90;63.10
39023;DHT22;25908;51.984;5.928;2023-05-23T12:34:26;20.90;62.30
39023;DHT22;25908;51.984;5.928;2023-05-23T12:36:56;20.80;61.40
39023;DHT22;25908;51.984;5.928;2023-05-23T12:39:28;20.80;61.50
39023;DHT22;25908;51.984;5.928;2023-05-23T12:42:05;20.80;61.80
39023;DHT22;25908;51.984;5.928;2023-05-23T12:44:32;20.70;62.30
39023;DHT22;25908;51.984;5.928;2023-05-23T12:46:58;20.80;62.50
39023;DHT22;25908;51.984;5.928;2023-05-23T12:49:23;20.90;62.40
39023;DHT22;25908;51.984;5.928;2023-05-23T12:51:49;21.00;62.30
39023;DHT22;25908;51.984;5.928;2023-05-23T12:54:15;21.00;62.20
39023;DHT22;25908;51.984;5.928;2023-05-23T12:56:40;21.00;62.20
39023;DHT22;25908;51.984;5.928;2023-05-23T12:59:06;21.00;62.00
39023;DHT22;25908;51.984;5.928;2023-05-23T13:01:33;20.80;61.50
39023;DHT22;25908;51.984;5.928;2023-05-23T13:03:59;20.70;61.80
39023;DHT22;25908;51.984;5.928;2023-05-23T13:06:26;20.60;61.20
39023;DHT22;25908;51.984;5.928;2023-05-23T13:08:51;20.40;61.90
39023;DHT22;25908;51.984;5.928;2023-05-23T13:11:21;20.40;62.20
39023;DHT22;25908;51.984;5.928;2023-05-23T13:13:47;20.50;62.50
39023;DHT22;25908;51.984;5.928;2023-05-23T13:16:12;20.50;62.10
39023;DHT22;25908;51.984;5.928;2023-05-23T13:18:38;20.40;61.80
39023;DHT22;25908;51.984;5.928;2023-05-23T13:21:04;20.40;61.90
39023;DHT22;25908;51.984;5.928;2023-05-23T13:23:30;20.40;62.20
39023;DHT22;25908;51.984;5.928;2023-05-23T13:25:56;20.40;62.30
39023;DHT22;25908;51.984;5.928;2023-05-23T13:28:22;20.50;62.40
39023;DHT22;25908;51.984;5.928;2023-05-23T13:30:48;20.50;62.20
39023;DHT22;25908;51.984;5.928;2023-05-23T13:33:13;20.40;61.60
39023;DHT22;25908;51.984;5.928;2023-05-23T13:35:39;20.40;61.30
39023;DHT22;25908;51.984;5.928;2023-05-23T13:38:04;20.30;61.40
39023;DHT22;25908;51.984;5.928;2023-05-23T13:40:30;20.20;61.30
39023;DHT22;25908;51.984;5.928;2023-05-23T13:42:56;20.10;61.70
39023;DHT22;25908;51.984;5.928;2023-05-23T13:45:21;20.10;62.20
39023;DHT22;25908;51.984;5.928;2023-05-23T13:47:47;20.10;62.30
39023;DHT22;25908;51.984;5.928;2023-05-23T13:50:13;20.20;62.30
39023;DHT22;25908;51.984;5.928;2023-05-23T13:52:38;20.10;62.10
39023;DHT22;25908;51.984;5.928;2023-05-23T13:55:04;20.00;62.20
39023;DHT22;25908;51.984;5.928;2023-05-23T13:57:30;19.90;62.90
39023;DHT22;25908;51.984;5.928;2023-05-23T13:59:56;19.90;63.40
39023;DHT22;25908;51.984;5.928;2023-05-23T14:02:22;19.80;63.40
39023;DHT22;25908;51.984;5.928;2023-05-23T14:04:48;19.70;63.30
39023;DHT22;25908;51.984;5.928;2023-05-23T14:07:14;19.80;63.30
39023;DHT22;25908;51.984;5.928;2023-05-23T14:09:40;19.70;63.50
39023;DHT22;25908;51.984;5.928;2023-05-23T14:12:05;19.60;63.40
39023;DHT22;25908;51.984;5.928;2023-05-23T14:14:31;19.50;63.40
39023;DHT22;25908;51.984;5.928;2023-05-23T14:16:56;19.50;63.30
39023;DHT22;25908;51.984;5.928;2023-05-23T14:19:22;19.50;63.30
39023;DHT22;25908;51.984;5.928;2023-05-23T14:21:48;19.50;63.10
39023;DHT22;25908;51.984;5.928;2023-05-23T14:24:13;19.40;62.80
39023;DHT22;25908;51.984;5.928;2023-05-23T14:26:39;19.40;63.30
39023;DHT22;25908;51.984;5.928;2023-05-23T14:29:05;19.40;63.50
39023;DHT22;25908;51.984;5.928;2023-05-23T14:31:30;19.40;64.00
39023;DHT22;25908;51.984;5.928;2023-05-23T14:33:56;19.40;63.90
39023;DHT22;25908;51.984;5.928;2023-05-23T14:36:21;19.40;64.30
39023;DHT22;25908;51.984;5.928;2023-05-23T14:38:47;19.50;64.70
39023;DHT22;25908;51.984;5.928;2023-05-23T14:41:15;19.40;64.80
39023;DHT22;25908;51.984;5.928;2023-05-23T14:43:41;19.50;64.50
39023;DHT22;25908;51.984;5.928;2023-05-23T14:46:06;19.40;64.20
39023;DHT22;25908;51.984;5.928;2023-05-23T14:48:33;19.40;64.00
39023;DHT22;25908;51.984;5.928;2023-05-23T14:50:58;19.30;63.70
39023;DHT22;25908;51.984;5.928;2023-05-23T14:53:29;19.20;63.70
39023;DHT22;25908;51.984;5.928;2023-05-23T14:55:55;19.10;63.60
39023;DHT22;25908;51.984;5.928;2023-05-23T14:58:21;19.10;63.40
39023;DHT22;25908;51.984;5.928;2023-05-23T15:00:47;19.00;63.50
39023;DHT22;25908;51.984;5.928;2023-05-23T15:03:13;19.00;63.40
39023;DHT22;25908;51.984;5.928;2023-05-23T15:05:39;19.00;63.90
39023;DHT22;25908;51.984;5.928;2023-05-23T15:08:05;19.00;64.10
39023;DHT22;25908;51.984;5.928;2023-05-23T15:10:31;18.90;64.30
39023;DHT22;25908;51.984;5.928;2023-05-23T15:12:56;18.90;64.70
39023;DHT22;25908;51.984;5.928;2023-05-23T15:15:22;18.90;64.80
39023;DHT22;25908;51.984;5.928;2023-05-23T15:17:49;18.80;65.10
39023;DHT22;25908;51.984;5.928;2023-05-23T15:20:15;18.90;65.20
39023;DHT22;25908;51.984;5.928;2023-05-23T15:22:41;18.90;65.10
39023;DHT22;25908;51.984;5.928;2023-05-23T15:25:07;18.90;64.80
39023;DHT22;25908;51.984;5.928;2023-05-23T15:27:33;18.90;64.70
39023;DHT22;25908;51.984;5.928;2023-05-23T15:29:59;18.90;64.40
39023;DHT22;25908;51.984;5.928;2023-05-23T15:32:24;18.80;64.50
39023;DHT22;25908;51.984;5.928;2023-05-23T15:34:50;18.80;64.80
39023;DHT22;25908;51.984;5.928;2023-05-23T15:37:16;18.70;64.90
39023;DHT22;25908;51.984;5.928;2023-05-23T15:39:42;18.70;64.90
39023;DHT22;25908;51.984;5.928;2023-05-23T15:42:08;18.70;65.00
39023;DHT22;25908;51.984;5.928;2023-05-23T15:44:33;18.70;64.80
39023;DHT22;25908;51.984;5.928;2023-05-23T15:46:59;18.80;64.80
39023;DHT22;25908;51.984;5.928;2023-05-23T15:49:24;18.80;64.70
39023;DHT22;25908;51.984;5.928;2023-05-23T15:51:50;18.70;64.60